Latest Weather Observations for Hughenden

IDQ60801

Issued at 4:05 pm EST Monday 22 September 2014 (issued every 30 minutes, with the page automatically refreshed every 10 minutes)

About weather observations | Map of weather stations | Latest weather observations for QLD | Other Formats
Station Details ID: 030022 Name: HUGHENDEN AIRPORT Lat: -20.82 Lon: 144.23 Height: 316.4 m
Data from the previous 72 hours. | See also: Recent months at Hughenden
Date/Time
EST
Temp
°C
App
Temp
°C
Dew
Point
Rel
Hum
%
Delta-T
°C
Wind Press
QNH
hPa
Press
MSL
hPa
Rain
since 9 am
mm
Dir
 
Spd
km/h
Gust
km/h
Spd
kts
Gust
kts
22/04:00pm 26.5 22.2 12.2 41 8.4 ESE 26 37 14 20 1013.7 1012.1 0.8
22/03:30pm 25.3 22.6 13.5 48 7.0 E 20 28 11 15 1013.7 1012.1 0.6
22/03:00pm 26.4 22.0 10.5 37 9.0 E 24 35 13 19 1013.8 1012.2 0.2
22/02:30pm 28.1 23.1 9.4 31 10.5 E 26 37 14 20 1013.7 1012.1 0.2
22/02:03pm 26.5 20.4 6.5 28 10.6 NNE 28 50 15 27 1013.6 1012.0 0.2
22/02:00pm 27.4 25.0 6.8 27 11.0 SW 9 17 5 9 1013.9 1012.3 0.2
22/01:30pm 28.7 24.3 8.9 29 11.1 E 22 30 12 16 1014.0 1012.4 0.2
22/01:00pm 29.1 24.5 9.8 30 11.0 E 24 32 13 17 1014.7 1013.1 0.2
22/12:30pm 27.7 23.6 10.0 33 10.0 ENE 22 39 12 21 1015.4 1013.9 0.2
22/12:00pm 27.1 22.4 10.7 35 9.4 ENE 26 39 14 21 1016.0 1014.5 0.2
22/11:30am 27.0 22.3 11.9 39 8.8 ENE 28 43 15 23 1016.9 1015.3 0.2
22/11:00am 25.9 20.6 11.3 40 8.4 ENE 30 39 16 21 1017.2 1015.6 0.2
22/10:30am 25.4 20.1 12.6 45 7.5 ENE 32 43 17 23 1017.5 1015.9 0.2
22/10:00am 24.4 19.1 13.0 49 6.7 E 33 43 18 23 1017.7 1016.1 0.2
22/09:39am 23.8 19.1 13.1 51 6.3 ENE 30 50 16 27 1018.0 1016.4 0.0
22/09:30am 23.3 18.5 12.9 52 6.1 ENE 30 39 16 21 1018.2 1016.7 0.0
22/09:00am 22.6 18.4 13.4 56 5.4 E 28 37 15 20 1018.3 1016.8 0.0
22/08:30am 21.8 17.7 13.7 60 4.8 E 28 35 15 19 1018.2 1016.7 0.0
22/08:00am 21.0 17.7 13.9 64 4.2 E 24 32 13 17 1017.9 1016.3 0.0
22/07:30am 19.6 17.5 14.6 73 3.0 E 19 22 10 12 1017.7 1016.1 0.0
22/07:00am 18.2 17.2 14.5 79 2.2 ESE 13 17 7 9 1017.4 1015.8 0.0
22/06:30am 17.2 16.0 14.1 82 1.8 E 13 17 7 9 1016.8 1015.2 0.0
22/06:00am 17.2 16.3 13.7 80 2.0 SE 11 13 6 7 1016.6 1015.1 0.0
22/05:30am 18.0 16.0 13.9 77 2.4 E 17 20 9 11 1016.3 1014.8 0.0
22/05:00am 18.1 15.6 13.4 74 2.7 ENE 19 24 10 13 1015.5 1014.0 0.0
22/04:30am 18.5 15.9 13.1 71 3.1 ENE 19 24 10 13 1015.2 1013.6 0.0
22/04:00am 19.1 16.3 13.1 68 3.4 ENE 20 28 11 15 1015.3 1013.8 0.0
22/03:30am 19.3 16.3 12.6 65 3.8 ENE 20 30 11 16 1015.4 1013.9 0.0
22/03:00am 19.4 16.5 12.9 66 3.7 ENE 20 28 11 15 1015.5 1014.0 0.0
22/02:30am 18.6 15.7 12.8 69 3.3 E 20 26 11 14 1015.8 1014.3 0.0
22/02:00am 19.1 16.5 13.1 68 3.4 E 19 28 10 15 1016.2 1014.7 0.0
22/01:30am 20.3 17.8 12.3 60 4.6 ENE 17 24 9 13 1016.8 1015.2 0.0
22/01:00am 20.2 16.9 12.7 62 4.3 E 22 28 12 15 1016.4 1014.9 0.0
22/12:30am 19.9 17.6 13.1 65 3.9 E 17 22 9 12 1016.6 1015.1 0.0
22/12:00am 20.6 18.0 13.1 62 4.3 E 19 24 10 13 1016.9 1015.3 0.0
 
Date/Time
EST
Temp
°C
App
Temp
°C
Dew
Point
Rel
Hum
%
Delta-T
°C
Wind Press
QNH
hPa
Press
MSL
hPa
Rain
since 9 am
mm
Dir
 
Spd
km/h
Gust
km/h
Spd
kts
Gust
kts
21/11:30pm 20.6 18.4 13.3 63 4.2 E 17 20 9 11 1016.5 1015.0 0.0
21/11:00pm 20.9 18.2 12.8 60 4.7 E 19 28 10 15 1016.8 1015.2 0.0
21/10:30pm 22.2 18.3 12.2 53 5.7 E 24 33 13 18 1016.8 1015.2 0.0
21/10:00pm 22.5 17.9 12.4 52 5.8 ENE 28 33 15 18 1016.3 1014.8 0.0
21/09:30pm 22.8 19.1 13.8 57 5.3 ENE 26 37 14 20 1016.5 1015.0 0.0
21/09:00pm 23.1 19.0 13.8 55 5.5 ENE 28 37 15 20 1016.0 1014.5 0.0
21/08:30pm 24.3 21.2 12.3 47 7.0 E 20 30 11 16 1015.7 1014.2 0.0
21/08:00pm 25.2 21.3 9.5 37 8.7 E 20 24 11 13 1015.7 1014.2 0.0
21/07:30pm 24.4 21.6 5.2 29 9.8 S 9 9 5 5 1015.0 1013.4 0.0
21/07:00pm 25.3 23.0 5.5 28 10.2 SSE 7 9 4 5 1014.7 1013.1 0.0
21/06:30pm 27.0 24.2 5.3 25 11.3 SW 9 9 5 5 1014.4 1012.8 0.0
21/06:00pm 28.2 25.6 6.3 25 11.7 SW 9 11 5 6 1014.1 1012.5 0.0
21/05:30pm 28.5 26.8 6.0 24 12.0 E 4 11 2 6 1013.8 1012.2 0.0
21/05:00pm 29.1 26.6 6.5 24 12.2 S 9 11 5 6 1013.6 1012.0 0.0
21/04:30pm 29.3 27.2 6.7 24 12.2 N 7 13 4 7 1013.7 1012.1 0.0
21/04:00pm 30.0 27.5 6.6 23 12.7 NNW 9 13 5 7 1014.0 1012.4 0.0
21/03:30pm 29.3 26.8 6.7 24 12.2 N 9 19 5 10 1014.2 1012.6 0.0
21/03:00pm 28.8 26.2 6.2 24 12.1 N 9 15 5 8 1014.4 1012.8 0.0
21/02:30pm 28.1 25.4 5.6 24 11.9 E 9 13 5 7 1015.0 1013.4 0.0
21/02:00pm 28.2 25.8 5.1 23 12.1 E 7 13 4 7 1015.5 1014.0 0.0
21/01:30pm 27.2 23.4 1.6 19 12.5 NW 11 19 6 10 1015.9 1014.4 0.0
21/01:00pm 28.0 24.0 3.0 20 12.6 NNW 13 19 7 10 1016.5 1015.0 0.0
21/12:30pm 28.1 23.1 3.7 21 12.5 NNE 19 28 10 15 1017.0 1015.4 0.0
21/12:00pm 27.3 23.7 3.1 21 12.1 NW 11 17 6 9 1017.7 1016.1 0.0
21/11:30am 27.4 22.7 5.1 24 11.6 NE 19 30 10 16 1018.1 1016.6 0.0
21/11:00am 26.5 21.9 5.5 26 10.9 NE 19 28 10 15 1018.4 1016.9 0.0
21/10:30am 25.2 22.5 5.4 28 10.2 ENE 9 17 5 9 1018.8 1017.3 0.0
21/10:00am 24.0 21.0 5.8 31 9.4 E 11 15 6 8 1019.1 1017.6 0.0
21/09:30am 23.0 20.4 5.9 33 8.8 SSE 9 13 5 7 1019.4 1017.9 0.0
21/09:00am 21.9 17.8 2.1 27 9.4 SE 13 17 7 9 1019.3 1017.8 0.0
21/08:30am 20.4 15.3 -2.0 22 9.7 SE 15 20 8 11 1018.7 1017.2 0.0
21/08:00am 17.1 10.8 -6.0 20 8.9 S 19 22 10 12 1018.4 1016.9 0.0
21/07:30am 16.5 10.1 -7.2 19 8.9 SSE 19 24 10 13 1017.4 1015.8 0.0
21/07:00am 17.0 11.1 -6.1 20 8.9 S 17 24 9 13 1016.9 1015.3 0.0
21/06:30am 16.1 10.6 -5.6 22 8.4 S 15 19 8 10 1016.0 1014.5 0.0
21/06:00am 16.0 12.2 -1.1 31 7.2 SE 9 11 5 6 1015.1 1013.5 0.0
21/05:30am 15.8 10.2 -6.5 21 8.4 ESE 15 17 8 9 1014.8 1013.2 0.0
21/05:00am 15.3 9.7 -6.9 21 8.2 SE 15 15 8 8 1014.9 1013.3 0.0
21/04:30am 15.2 9.5 -7.0 21 8.2 SE 15 17 8 9 1014.8 1013.2 0.0
21/04:00am 15.2 10.3 -7.0 21 8.2 E 11 13 6 7 1014.6 1013.0 0.0
21/03:30am 15.3 10.3 -8.2 19 8.5 S 11 15 6 8 1015.2 1013.6 0.0
21/03:00am 15.3 10.0 -7.5 20 8.4 SSW 13 15 7 8 1015.5 1014.0 0.0
21/02:30am 16.3 11.3 -8.0 18 8.9 SE 11 13 6 7 1015.4 1013.9 0.0
21/02:00am 17.6 13.4 -7.7 17 9.5 E 7 9 4 5 1015.7 1014.2 0.0
21/01:30am 17.0 13.0 -7.5 18 9.2 NE 6 9 3 5 1016.1 1014.6 0.0
21/01:00am 18.9 15.3 -7.4 16 10.0 N 4 7 2 4 1016.5 1015.0 0.0
21/12:30am 19.6 15.0 -7.7 15 10.5 ESE 9 11 5 6 1016.3 1014.8 0.0
21/12:00am 20.3 15.7 -8.0 14 10.8 SE 9 13 5 7 1016.9 1015.3 0.0
 
Date/Time
EST
Temp
°C
App
Temp
°C
Dew
Point
Rel
Hum
%
Delta-T
°C
Wind Press
QNH
hPa
Press
MSL
hPa
Rain
since 9 am
mm
Dir
 
Spd
km/h
Gust
km/h
Spd
kts
Gust
kts
20/11:30pm 21.2 15.9 -7.3 14 11.2 SSE 13 15 7 8 1016.9 1015.3 0.0
20/11:00pm 21.8 16.5 -6.8 14 11.4 SE 13 17 7 9 1017.1 1015.5 0.0
20/10:30pm 21.0 16.1 -7.5 14 11.1 ESE 11 13 6 7 1017.0 1015.4 0.0
20/10:00pm 21.8 16.8 -7.8 13 11.6 SSE 11 13 6 7 1017.4 1015.8 0.0
20/09:30pm 22.9 18.0 -6.9 13 12.0 SSE 11 13 6 7 1017.1 1015.5 0.0
20/09:00pm 24.6 19.0 -6.7 12 12.8 SSE 15 20 8 11 1017.0 1015.4 0.0
20/08:30pm 25.6 19.7 -5.9 12 13.3 SSE 17 24 9 13 1016.8 1015.2 0.0
20/08:00pm 25.7 19.9 -4.7 13 13.1 S 17 20 9 11 1016.3 1014.8 0.0
20/07:30pm 25.7 20.7 -4.7 13 13.1 S 13 13 7 7 1015.9 1014.4 0.0
20/07:00pm 26.6 21.9 -5.1 12 13.7 S 11 15 6 8 1015.5 1014.0 0.0
20/06:30pm 28.2 22.7 -5.0 11 14.5 S 15 20 8 11 1015.2 1013.6 0.0
20/06:00pm 29.4 23.1 -4.1 11 15.0 SSE 20 28 11 15 1014.6 1013.0 0.0
20/05:30pm 30.1 23.5 -3.6 11 15.4 S 22 30 12 16 1014.3 1012.7 0.0
20/05:00pm 30.8 24.1 -4.3 10 15.9 S 22 28 12 15 1013.9 1012.3 0.0
20/04:30pm 32.0 25.4 -3.4 10 16.4 S 22 28 12 15 1013.7 1012.1 0.0
20/04:00pm 31.9 25.7 -3.5 10 16.4 SSW 20 28 11 15 1013.3 1011.8 0.0
20/03:30pm 32.3 26.1 -4.6 9 16.8 SSW 19 22 10 12 1013.1 1011.6 0.0
20/03:00pm 32.5 26.3 -3.0 10 16.6 SSE 20 32 11 17 1013.1 1011.6 0.0
20/02:30pm 32.4 26.8 -3.1 10 16.6 S 17 26 9 14 1013.6 1012.0 0.0
20/02:00pm 32.3 26.3 -3.2 10 16.6 S 19 30 10 16 1014.0 1012.4 0.0
20/01:30pm 32.0 26.7 -3.4 10 16.4 WSW 15 24 8 13 1014.5 1012.9 0.0
20/01:00pm 31.8 26.9 -3.5 10 16.3 SW 13 22 7 12 1015.2 1013.6 0.0
20/12:30pm 31.2 26.6 -4.0 10 16.1 SW 11 20 6 11 1015.8 1014.3 0.0
20/12:00pm 29.9 25.2 -5.0 10 15.5 S 11 26 6 14 1016.5 1015.0 0.0
20/11:30am 29.3 24.2 -5.4 10 15.2 E 13 17 7 9 1017.4 1015.8 0.0
20/11:00am 28.7 23.5 -5.9 10 14.9 ESE 13 19 7 10 1018.0 1016.4 0.0
20/10:30am 28.8 23.6 -5.8 10 15.0 E 13 22 7 12 1018.5 1017.0 0.0
20/10:00am 27.4 21.8 -6.9 10 14.4 E 15 24 8 13 1018.8 1017.3 0.0
20/09:30am 26.3 19.9 -6.5 11 13.7 ESE 19 22 10 12 1018.9 1017.4 0.0
20/09:00am 25.2 19.2 -6.2 12 13.1 E 17 26 9 14 1019.1 1017.6 0.0
20/08:30am 23.7 18.6 -5.3 14 12.1 ESE 13 19 7 10 1019.2 1017.7 0.0
20/08:00am 21.5 16.3 -6.2 15 11.1 E 13 17 7 9 1019.0 1017.5 0.0
20/07:30am 19.8 15.8 -5.2 18 10.1 E 7 11 4 6 1018.9 1017.4 0.0
20/07:00am 16.1 12.1 -5.6 22 8.3 E 7 9 4 5 1018.6 1017.1 0.0
20/06:30am 14.8 10.7 -6.7 22 8.0 ESE 7 9 4 5 1018.4 1016.9 0.0
20/06:00am 16.3 11.5 -6.0 21 8.5 E 11 13 6 7 1018.2 1016.7 0.0
20/05:30am 17.5 12.7 -6.3 19 9.2 ENE 11 13 6 7 1018.0 1016.4 0.0
20/05:00am 19.0 13.5 -5.8 18 9.8 ENE 15 19 8 10 1017.8 1016.2 0.0
20/04:30am 19.8 12.5 -5.9 17 10.2 SSE 24 30 13 16 1016.9 1015.3 0.0
20/04:00am 19.4 13.1 -6.2 17 10.1 SE 19 26 10 14 1016.9 1015.3 0.0
20/03:30am 19.9 13.6 -5.8 17 10.3 SE 19 26 10 14 1017.0 1015.4 0.0
20/03:00am 20.2 13.9 -5.6 17 10.4 SE 19 24 10 13 1017.2 1015.6 0.0
20/02:30am 19.8 14.2 -5.9 17 10.2 SE 15 20 8 11 1017.3 1015.7 0.0
20/02:00am 19.2 13.6 -6.4 17 10.0 SE 15 19 8 10 1017.4 1015.8 0.0
20/01:30am 18.4 12.8 -6.3 18 9.6 SE 15 17 8 9 1017.6 1016.0 0.0
20/01:00am 18.0 12.2 -8.2 16 9.7 SE 15 19 8 10 1017.7 1016.1 0.0
20/12:30am 17.5 12.2 -7.8 17 9.5 SE 13 17 7 9 1017.9 1016.3 0.0
20/12:00am 20.2 14.1 -7.2 15 10.7 SSE 17 19 9 10 1018.0 1016.4 0.0
 
Date/Time
EST
Temp
°C
App
Temp
°C
Dew
Point
Rel
Hum
%
Delta-T
°C
Wind Press
QNH
hPa
Press
MSL
hPa
Rain
since 9 am
mm
Dir
 
Spd
km/h
Gust
km/h
Spd
kts
Gust
kts
19/11:30pm 18.9 14.0 -7.4 16 10.1 SE 11 13 6 7 1018.2 1016.7 0.0
19/11:00pm 18.9 13.9 -8.3 15 10.2 SE 11 13 6 7 1018.1 1016.6 0.0
19/10:30pm 19.2 13.8 -8.0 15 10.3 SSE 13 15 7 8 1018.2 1016.7 0.0
19/10:00pm 18.5 13.4 -9.5 14 10.2 SSE 11 13 6 7 1018.1 1016.6 0.0
19/09:30pm 19.1 14.0 -9.0 14 10.4 SSE 11 13 6 7 1017.9 1016.3 0.0
19/09:00pm 20.7 16.0 -8.7 13 11.2 SE 9 11 5 6 1017.6 1016.0 0.0
19/08:30pm 22.1 17.1 -8.6 12 11.9 SSE 11 13 6 7 1017.3 1015.7 0.0
19/08:00pm 23.6 18.2 -8.5 11 12.6 S 13 13 7 7 1016.9 1015.3 0.0
19/07:30pm 24.8 19.9 -7.6 11 13.1 S 11 13 6 7 1016.4 1014.9 0.0
19/07:00pm 26.3 21.7 -7.7 10 13.9 S 9 11 5 6 1016.0 1014.5 0.0
19/06:30pm 27.7 22.3 -8.0 9 14.8 S 13 17 7 9 1015.7 1014.2 0.0
19/06:00pm 29.6 23.6 -6.6 9 15.6 S 17 22 9 12 1015.3 1013.8 0.0
19/05:30pm 30.7 23.7 -7.3 8 16.3 S 22 28 12 15 1015.1 1013.5 0.0
19/05:00pm 31.4 24.8 -6.8 8 16.6 SSW 20 26 11 14 1015.1 1013.5 0.0
19/04:30pm 31.4 24.9 -8.5 7 16.9 S 19 30 10 16 1014.9 1013.3 0.0

Other Formats:

Comma delimited format used in spreadsheet applications
http://www.bom.gov.au/fwo/IDQ60801/IDQ60801.94343.axf

JavaScript Object Notation format (JSON) in row-major order
http://www.bom.gov.au/fwo/IDQ60801/IDQ60801.94343.json